METAR、SPECI、TAF(飛行場実況・予報)


■ METAR、SPECI(飛行場実況)

METAR RJBT 270300Z 21018KT 9999 FEW020 BKN/// 28/19 Q1002 RMK 1CU020 A2959
METAR RJBT 270400Z 20016KT 9999 FEW015 BKN/// 28/19 Q1001 RMK 1CU015 A2959
METAR RJBT 270500Z 20011KT 160V230 9999 FEW015 SCT025 BKN/// 28/20 Q1001 RMK 1CU015 3CU025 A2959
METAR RJBT 270600Z 22008KT 9999 FEW010 SCT025 BKN/// 28/20 Q1001 RMK 1CU010 3CU025 A2959
METAR RJBT 270700Z 01006KT 330V050 9999 FEW010 BKN/// 25/20 Q1002 RMK 1CU010 A2959
METAR RJBT 270800Z 01007KT 330V040 9999 FEW010 SCT030 BKN050 23/19 Q1002 RMK 1CU010 3CU030 5SC050 A2961
METAR RJBT 270900Z 01009KT 9999 FEW010 SCT030 BKN050 21/19 Q1003 RMK 1CU010 3CU030 6SC050 A2963
METAR RJBT 272330Z 34003KT 300V020 3000 -SHRA BCFG FEW000 SCT003 BKN020 14/13 Q1005 RMK 1ST000 3ST003 5CU020 A2968 1500N-E FG ALL QUAD
METAR RJBT 280000Z 36004KT 320V030 1500 SHRA BCFG FEW000 SCT002 BKN015 14/13 Q1005 RMK 1ST000 3ST002 5CU015 A2968 FG ALL QUAD
SPECI RJBT 280039Z VRB02KT 2000 SHRA BCFG FEW000 SCT003 BKN020 14/13 Q1005 RMK 1ST000 3ST003 5CU020 A2970 FG ALL QUAD
METAR RJBT 280100Z VRB02KT 2000 SHRA BCFG FEW000 SCT003 BKN020 14/13 Q1005 RMK 1ST000 3ST003 5CU020 A2969 FG ALL QUAD
METAR RJBT 280200Z 00000KT 2000 SHRA BCFG FEW000 SCT003 BKN020 14/13 Q1004 RMK 1ST000 3ST003 5CU020 A2966 FG ALL QUAD
METAR RJBT 280300Z 31003KT 260V360 2000 +SHRA BCFG FEW000 SCT002 BKN010 13/13 Q1003 RMK 1ST000 3ST002 5CU010 A2962 FG ALL QUAD
SPECI RJBT 280335Z 01005KT 330V050 1500 SHRA BCFG FEW000 SCT002 BKN005 13/13 Q1002 RMK 1ST000 3ST002 5ST005 A2961 FG ALL QUAD
METAR RJBT 280400Z 36004KT 330V050 1500 SHRA BCFG FEW000 SCT002 BKN005 13/13 Q1002 RMK 1ST000 3ST002 5ST005 A2961 FG ALL QUAD
SPECI RJBT 280431Z VRB02KT 2000 SHRA BCFG FEW000 SCT003 BKN010 13/12 Q1002 RMK 1ST000 3ST003 5CU010 A2960 FG ALL QUAD
METAR RJBT 280500Z VRB01KT 2000 SHRA BCFG FEW000 SCT003 BKN008 13/12 Q1001 RMK 1ST000 3ST003 5ST008 A2957 FG ALL QUAD
METAR RJBT 280600Z 33003KT 290V010 2500 SHRA BCFG FEW000 SCT003 BKN010 13/13 Q0999 RMK 1ST000 3ST003 5CU010 A2952 FG ALL QUAD P/FR
SPECI RJBT 280642Z 35005KT 300V030 4000 -SHRA BCFG FEW000 SCT003 BKN008 13/13 Q1000 RMK 1ST000 3ST003 5ST008 A2953 FG ALL QUAD
METAR RJBT 280700Z 35009KT 5000 -SHRA BCFG FEW000 SCT003 BKN008 13/13 Q1000 RMK 1ST000 3ST003 5ST008 A2954 FG ALL QUAD
SPECI RJBT 280724Z 36007KT 330V040 2000 -SHRA BCFG FEW000 SCT002 BKN006 13/13 Q1000 RMK 1ST000 3ST002 5ST006 A2953 FG ALL QUAD
METAR RJBT 280800Z 36007KT 5000 -SHRA BCFG FEW000 SCT003 BKN008 13/13 Q1001 RMK 1ST000 3ST003 5ST008 A2956 FG ALL QUAD
SPECI RJBT 280827Z 36009KT 3000 -SHRA BCFG FEW000 SCT003 BKN008 13/12 Q1001 RMK 1ST000 3ST003 5ST008 A2957 FG ALL QUAD
METAR RJBT 280900Z 35007KT 310V020 6000 -SHRA BCFG FEW000 SCT003 BKN010 13/12 Q1002 RMK 1ST000 3ST003 5CU010 A2959 FG ALL QUAD
METAR RJBT 282330Z 34007KT 310V020 9999 FEW020 BKN030 16/11 Q1012 RMK 1CU020 5CU030 A2991
METAR RJBT 290000Z 01007KT 300V060 9999 FEW020 BKN030 16/11 Q1012 RMK 2CU020 5CU030 A2990
METAR RJBT 290100Z 01005KT 320V050 9999 FEW015 SCT030 17/10 Q1012 RMK 1CU015 4CU030 A2991
METAR RJBT 290200Z 02008KT 300V060 9999 FEW015 SCT030 18/10 Q1013 RMK 1CU015 4CU030 A2992
METAR RJBT 290300Z 01009KT 330V070 9999 FEW020 18/11 Q1013 RMK 1CU020 A2992
METAR RJBT 290400Z 01007KT 340V060 9999 FEW025 18/11 Q1013 RMK 1CU025 A2992
METAR RJBT 290500Z 02008KT 350V050 9999 FEW025 20/12 Q1013 RMK 1CU025 A2994
METAR RJBT 290600Z 01008KT 330V040 9999 FEW025 19/12 Q1014 RMK 1CU025 A2996
METAR RJBT 290700Z 01009KT 330V050 9999 FEW025 19/12 Q1014 RMK 1CU025 A2995
METAR RJBT 290800Z 36007KT 330V050 9999 FEW030 18/12 Q1014 RMK 1CU030 A2996
METAR RJBT 290900Z 01006KT 310V040 9999 FEW030 17/12 Q1014 RMK 1CU030 A2997
METAR RJBT 292330Z 20006KT CAVOK 17/12 Q1014 RMK A2996
METAR RJBT 300000Z 19005KT 140V230 CAVOK 19/13 Q1014 RMK A2996
METAR RJBT 300100Z 20003KT 140V260 CAVOK 21/13 Q1013 RMK A2993
METAR RJBT 300200Z 19006KT 160V230 CAVOK 23/13 Q1013 RMK A2993
METAR RJBT 300300Z 17008KT 130V210 9999 FEW030 BKN/// 24/11 Q1012 RMK 1CU030 A2991
METAR RJBT 300400Z 17007KT 130V200 9999 FEW030 BKN/// 23/12 Q1012 RMK 1CU030 A2991
METAR RJBT 300500Z 16008KT 130V190 9999 FEW030 BKN/// 24/12 Q1012 RMK 1CU030 A2990
METAR RJBT 300600Z 16007KT 130V200 9999 FEW030 SCT150 BKN/// 24/12 Q1011 RMK 1CU030 3AC150 A2988
METAR RJBT 300700Z 16009KT 120V190 9999 FEW030 SCT150 BKN/// 23/08 Q1011 RMK 1CU030 4AC150 A2985
METAR RJBT 300800Z 19007KT 9999 FEW030 SCT120 BKN150 23/09 Q1011 RMK 1CU030 3AC120 5AC150 A2988
METAR RJBT 300900Z 19003KT 9999 FEW030 SCT150 BKN/// 23/09 Q1012 RMK 1CU030 3AC150 A2989

■ TAF(飛行場予報)


				

お知らせ

新着情報

  • 太陽光発電量推算
  • 気象予報士試験過去問・講座
  • Yahoo Weather shop
  • メルカリ Weather shop

ご案内